EFTP/TMP METAR and TAF weather

Enter ICAO airport designator
Station Type Date Time Source
EFTP METAR 2022/06/30 13:20 UTC NOAA

EFTP 301320Z 08008KT 040V100 CAVOK 28/09 Q1020


Station Type Date Time Source
EFTP Decoded METAR 2022/06/30 13:20 UTC NOAA

Tampere / Pirkkala, Finland (EFTP) 61-25N 023-35E 112M
Jun 30, 2022 - 09:20 AM EDT / 2022.06.30 1320 UTC
Wind: from the E (080 degrees) at 9 MPH (8 KT) (direction variable):0
Visibility: greater than 7 mile(s):0
Temperature: 82 F (28 C)
Dew Point: 48 F (9 C)
Relative Humidity: 30%
Pressure (altimeter): 30.12 in. Hg (1020 hPa)
ob: EFTP 301320Z 08008KT 040V100 CAVOK 28/09 Q1020
cycle: 13

Station Type Date Time Source
EFTP TAF 2022/06/30 12:42 UTC NOAA

TAF EFTP 301125Z 3012/0112 10009KT CAVOK

Example: see airport list